SGN weather

Tan Son Nhat International Airport
Ho Chi Minh City, Ha Tinh Province, Vietnam

Public forecast

Using degrees Celsius for public forecast. Weather courtesy of forecast.io.

METAR (pilot weather report)

Retrieved 2019/03/19 07:30 UTC (0 seconds ago):

VVTS 190730Z 17010G23KT 130V280 9999 BKN017 34/20 Q1008 NOSIG

TAF (pilot weather forecast)

Retrieved 2019/03/19 06:39 UTC (48 minutes ago):

TAF VVTS 190500Z 1906/2012 14010KT 9999 SCT017 SCT040